createdAt,value
2018-12-04T00:01:01.796Z,64.70
2018-12-04T00:03:30.373Z,65.10
2018-12-04T00:08:59.348Z,66.40
2018-12-04T00:11:27.635Z,65.40
2018-12-04T00:13:55.971Z,66.00
2018-12-04T00:19:25.315Z,66.00
2018-12-04T00:21:54.253Z,66.00
2018-12-04T00:24:22.754Z,66.50
2018-12-04T00:29:52.013Z,66.20
2018-12-04T00:32:20.298Z,66.80
2018-12-04T00:34:48.631Z,67.00
2018-12-04T00:40:18.632Z,66.20
2018-12-04T00:42:48.107Z,66.80
2018-12-04T00:45:17.127Z,66.70
2018-12-04T00:50:38.450Z,66.10
2018-12-04T00:53:08.878Z,65.30
2018-12-04T00:55:52.638Z,66.30
2018-12-04T00:58:21.300Z,66.00
2018-12-04T01:00:49.576Z,65.40
2018-12-04T01:03:18.082Z,64.60
2018-12-04T01:08:47.339Z,65.40
2018-12-04T01:11:15.856Z,65.80
2018-12-04T01:13:44.201Z,65.50
2018-12-04T01:19:12.875Z,66.50
2018-12-04T01:21:41.282Z,66.80
2018-12-04T01:24:10.047Z,66.90
2018-12-04T01:29:38.935Z,67.50
2018-12-04T01:32:07.693Z,67.40
2018-12-04T01:34:35.944Z,66.60
2018-12-04T01:40:05.184Z,66.20
2018-12-04T01:42:33.386Z,65.90
2018-12-04T01:45:02.277Z,65.90
2018-12-04T03:45:39.106Z,65.30
2018-12-04T03:48:08.193Z,65.80
2018-12-04T03:50:36.439Z,64.60
2018-12-04T03:53:04.669Z,64.20
2018-12-04T03:58:34.048Z,64.20
2018-12-04T04:01:02.441Z,64.60
2018-12-04T04:03:31.245Z,65.50
2018-12-04T04:09:01.353Z,65.10
2018-12-04T04:11:29.684Z,64.40
2018-12-04T04:13:57.913Z,64.40
2018-12-04T04:19:26.869Z,64.20
2018-12-04T04:21:55.189Z,63.80
2018-12-04T04:24:24.309Z,63.60
2018-12-04T04:29:54.291Z,64.70
2018-12-04T04:32:22.761Z,64.70
2018-12-04T04:34:51.125Z,63.90
2018-12-04T04:43:12.780Z,64.40
2018-12-04T04:45:41.040Z,64.90
2018-12-04T04:48:10.688Z,64.50
2018-12-04T04:53:39.925Z,64.20
2018-12-04T04:56:09.061Z,64.80
2018-12-04T04:58:38.028Z,64.80
2018-12-04T05:01:07.735Z,64.50
2018-12-04T05:03:36.046Z,63.40
2018-12-04T05:06:16.437Z,63.80
2018-12-04T05:08:46.830Z,63.50
2018-12-04T05:11:19.026Z,62.90
2018-12-04T05:13:50.536Z,63.50
2018-12-04T05:16:25.206Z,63.70
2018-12-04T05:19:00.171Z,64.00
2018-12-04T05:21:34.154Z,64.30
2018-12-04T05:24:11.476Z,63.80
2018-12-04T05:26:46.199Z,64.10
2018-12-04T05:29:26.721Z,63.50
2018-12-04T05:32:01.977Z,63.10
2018-12-04T05:34:36.011Z,62.30
2018-12-04T05:37:05.920Z,62.20
2018-12-04T05:39:41.709Z,61.70
2018-12-04T05:42:15.307Z,62.20
2018-12-04T05:47:18.605Z,62.50
2018-12-04T05:49:52.459Z,61.50
2018-12-04T05:52:25.230Z,61.50
2018-12-04T05:55:05.526Z,61.40
2018-12-04T05:57:39.963Z,62.00
2018-12-04T06:03:04.635Z,61.40
2018-12-04T06:05:37.685Z,61.10
2018-12-04T06:08:09.793Z,60.60
2018-12-04T06:10:43.728Z,60.40
2018-12-04T06:13:17.895Z,61.20
2018-12-04T06:15:52.445Z,60.50
2018-12-04T06:18:26.568Z,60.90
2018-12-04T06:21:00.696Z,60.20
2018-12-04T06:23:32.482Z,61.00
2018-12-04T06:26:06.347Z,61.60
2018-12-04T06:28:38.903Z,61.00
2018-12-04T06:34:08.191Z,61.60
2018-12-04T06:36:36.472Z,62.20
2018-12-04T06:39:07.293Z,61.30
2018-12-04T06:44:36.111Z,60.50
2018-12-04T06:47:04.364Z,60.50
2018-12-04T06:52:25.903Z,60.70
2018-12-04T06:54:54.501Z,61.00
2018-12-04T06:57:22.880Z,60.70
2018-12-04T07:02:51.960Z,59.70
2018-12-04T07:05:20.328Z,59.60
2018-12-04T07:07:48.594Z,59.30
2018-12-04T07:13:19.254Z,59.70
2018-12-04T07:15:47.532Z,60.20
2018-12-04T07:18:15.898Z,59.30
2018-12-04T07:23:37.892Z,57.90
2018-12-04T07:26:06.140Z,59.10
2018-12-04T07:28:34.411Z,58.60
2018-12-04T07:33:57.393Z,58.10
2018-12-04T07:36:25.651Z,57.90
2018-12-04T07:38:54.147Z,58.70
2018-12-04T07:44:24.188Z,57.20
2018-12-04T07:46:53.285Z,57.70
2018-12-04T07:49:28.502Z,58.50
2018-12-04T07:52:00.579Z,58.40
2018-12-04T07:54:32.857Z,58.70
2018-12-04T07:57:07.021Z,58.50
2018-12-04T07:59:47.524Z,57.80
2018-12-04T08:02:19.006Z,58.10
2018-12-04T08:04:48.616Z,57.80
2018-12-04T08:07:22.517Z,57.40
2018-12-04T08:09:54.743Z,57.20
2018-12-04T08:12:26.083Z,57.20
2018-12-04T08:15:03.901Z,56.90
2018-12-04T08:17:35.523Z,57.30
2018-12-04T08:20:09.355Z,56.70
2018-12-04T08:22:41.073Z,56.10
2018-12-04T08:25:15.444Z,56.20
2018-12-04T08:27:47.664Z,55.70
2018-12-04T08:30:22.173Z,55.80
2018-12-04T08:32:50.437Z,55.20
2018-12-04T08:35:18.719Z,55.30
2018-12-04T08:37:48.008Z,54.20
2018-12-04T08:43:14.328Z,53.20
2018-12-04T08:45:42.676Z,52.50
2018-12-04T08:48:10.982Z,51.80
2018-12-04T08:53:33.601Z,52.70
2018-12-04T08:56:07.439Z,53.20
2018-12-04T08:58:42.440Z,53.70
2018-12-04T09:01:10.737Z,53.70
2018-12-04T09:06:37.028Z,52.80
2018-12-04T09:09:09.673Z,53.80
2018-12-04T09:20:24.501Z,57.10
2018-12-04T09:22:53.331Z,57.80
2018-12-04T09:25:21.912Z,57.70
2018-12-04T09:30:43.424Z,57.60
2018-12-04T09:33:11.659Z,57.70
2018-12-04T09:41:32.974Z,58.70
2018-12-04T09:44:01.977Z,58.50
2018-12-04T11:53:11.250Z,51.50
2018-12-04T11:55:41.016Z,50.80
2018-12-04T12:01:05.804Z,51.00
2018-12-04T12:03:40.275Z,50.50
2018-12-04T12:06:14.818Z,51.40
2018-12-04T12:08:48.881Z,52.10
2018-12-04T12:11:20.828Z,50.90
2018-12-04T12:13:53.226Z,50.20
2018-12-04T12:16:26.899Z,49.60
2018-12-04T12:19:01.913Z,50.40
2018-12-04T12:21:34.216Z,51.40
2018-12-04T12:24:04.306Z,50.90
2018-12-04T12:26:35.988Z,50.30
2018-12-04T12:29:07.542Z,50.60
2018-12-04T12:31:39.703Z,50.80
2018-12-04T12:34:11.483Z,50.30
2018-12-04T12:36:42.158Z,49.70
2018-12-04T12:39:22.741Z,48.60
2018-12-04T12:41:50.993Z,47.80
2018-12-04T12:47:19.672Z,48.60
2018-12-04T12:49:48.013Z,48.70
2018-12-04T12:52:16.791Z,48.70
2018-12-04T12:57:46.285Z,48.00
2018-12-04T13:00:14.522Z,48.60
2018-12-04T13:02:42.770Z,49.10
2018-12-04T13:08:11.685Z,49.40
2018-12-04T13:10:40.130Z,50.00
2018-12-04T13:13:08.870Z,48.50
2018-12-04T13:15:41.163Z,48.50
2018-12-04T13:18:19.206Z,48.10
2018-12-04T13:20:53.928Z,47.20
2018-12-04T13:23:27.985Z,46.40
2018-12-04T13:26:04.746Z,46.20
2018-12-04T13:28:37.313Z,45.90
2018-12-04T13:31:09.266Z,45.80
2018-12-04T13:33:43.007Z,46.20
2018-12-04T13:36:15.673Z,46.60
2018-12-04T13:38:51.666Z,47.10
2018-12-04T13:41:23.679Z,45.30
2018-12-04T13:44:01.941Z,46.90
2018-12-04T13:46:36.218Z,46.10
2018-12-04T13:49:11.617Z,46.00
2018-12-04T13:51:43.996Z,47.10
2018-12-04T13:54:31.071Z,46.90
2018-12-04T13:57:03.126Z,47.10
2018-12-04T13:59:37.340Z,46.80
2018-12-04T14:02:11.220Z,46.40
2018-12-04T14:04:45.794Z,45.70
2018-12-04T14:07:18.835Z,46.80
2018-12-04T14:09:52.614Z,46.50
2018-12-04T14:12:24.745Z,46.30
2018-12-04T14:14:55.771Z,46.20
2018-12-04T14:17:29.645Z,45.10
2018-12-04T14:20:04.177Z,45.60
2018-12-04T14:22:36.250Z,45.60
2018-12-04T14:25:16.310Z,44.70
2018-12-04T14:27:52.097Z,45.30
2018-12-04T14:30:24.740Z,45.60
2018-12-04T14:32:53.219Z,45.50
2018-12-04T14:47:39.606Z,44.60
2018-12-04T14:50:09.163Z,45.10
2018-12-04T14:52:38.248Z,45.10
2018-12-04T16:15:45.390Z,49.30
2018-12-04T16:18:16.976Z,50.30
2018-12-04T16:20:48.718Z,49.90
2018-12-04T16:23:22.895Z,49.90
2018-12-04T16:25:54.978Z,49.50
2018-12-04T16:28:28.734Z,49.60
2018-12-04T16:30:58.517Z,50.10
2018-12-04T16:33:32.513Z,49.90
2018-12-04T16:36:02.573Z,49.50
2018-12-04T16:38:34.685Z,49.70
2018-12-04T16:41:06.254Z,50.30
2018-12-04T16:43:38.248Z,50.40
2018-12-04T16:46:12.861Z,49.60
2018-12-04T16:48:44.662Z,49.90
2018-12-04T16:51:14.599Z,50.00
2018-12-04T16:53:48.407Z,50.10
2018-12-04T16:56:20.320Z,49.80
2018-12-04T16:58:54.592Z,50.80
2018-12-04T17:01:25.984Z,49.70
2018-12-04T17:03:55.545Z,50.30
2018-12-04T17:06:27.090Z,50.20
2018-12-04T17:09:01.062Z,50.50
2018-12-04T17:11:29.863Z,50.20
2018-12-04T17:13:58.809Z,50.40
2018-12-04T17:33:49.522Z,51.90
2018-12-04T17:36:21.564Z,52.10
2018-12-04T17:38:53.981Z,52.10
2018-12-04T17:41:24.170Z,52.00
2018-12-04T17:43:58.521Z,52.10
2018-12-04T17:46:30.791Z,50.90
2018-12-04T17:49:03.140Z,50.40
2018-12-04T17:51:35.413Z,50.10
2018-12-04T17:54:10.141Z,50.30
2018-12-04T17:56:41.829Z,50.60
2018-12-04T17:59:13.240Z,50.70
2018-12-04T18:01:47.337Z,50.60
2018-12-04T18:04:21.652Z,50.90
2018-12-04T18:06:53.852Z,51.00
2018-12-04T18:09:27.966Z,50.70
2018-12-04T18:11:57.691Z,51.10
2018-12-04T18:14:29.105Z,51.50
2018-12-04T18:17:02.973Z,51.60
2018-12-04T18:19:37.017Z,51.30
2018-12-04T18:22:09.113Z,51.40
2018-12-04T18:24:41.357Z,51.30
2018-12-04T18:27:15.912Z,51.30
2018-12-04T18:29:47.955Z,51.10
2018-12-04T18:32:20.213Z,51.10
2018-12-04T18:34:48.477Z,51.00
2018-12-04T18:40:09.910Z,49.90
2018-12-04T18:42:38.537Z,50.00
2018-12-04T18:45:08.261Z,50.10
2018-12-04T18:50:29.336Z,51.00
2018-12-04T18:52:57.645Z,51.40
2018-12-04T18:58:26.794Z,51.90
2018-12-04T19:00:55.789Z,51.40
2018-12-04T19:03:24.704Z,51.30
2018-12-04T19:08:53.359Z,50.20
2018-12-04T19:11:21.737Z,50.70
2018-12-04T19:13:50.241Z,50.90
2018-12-04T19:19:11.115Z,51.80
2018-12-04T19:21:40.603Z,50.70
2018-12-04T19:24:09.882Z,51.00
2018-12-04T19:29:39.181Z,50.60
2018-12-04T19:32:07.616Z,50.60
2018-12-04T19:34:36.194Z,50.40
2018-12-04T19:40:06.299Z,50.40
2018-12-04T19:42:34.668Z,50.60
2018-12-04T19:45:04.105Z,50.60
2018-12-04T19:50:33.026Z,50.70
2018-12-04T19:53:01.871Z,51.20
2018-12-04T19:55:30.882Z,51.20
2018-12-04T19:58:06.554Z,51.50
2018-12-04T20:00:34.854Z,50.80
2018-12-04T20:03:04.008Z,50.70
2018-12-04T20:05:33.259Z,50.80
2018-12-04T20:11:02.883Z,50.90
2018-12-04T20:13:31.577Z,51.00
2018-12-04T20:19:00.693Z,50.40
2018-12-04T20:21:29.059Z,50.70
2018-12-04T20:23:57.395Z,51.00
2018-12-04T20:29:26.554Z,51.30
2018-12-04T20:31:55.281Z,51.80
2018-12-04T20:34:23.878Z,51.70
2018-12-04T20:39:53.184Z,52.10
2018-12-04T20:42:23.388Z,50.80
2018-12-04T20:44:52.072Z,50.60
2018-12-04T20:50:21.209Z,51.30
2018-12-04T20:52:49.569Z,51.10
2018-12-04T20:55:17.968Z,51.80
2018-12-04T21:00:39.492Z,51.10
2018-12-04T21:03:07.965Z,51.10
2018-12-04T21:05:36.298Z,50.80
2018-12-04T21:11:05.692Z,50.40
2018-12-04T21:13:34.128Z,50.80
2018-12-04T21:16:09.283Z,51.00
2018-12-04T21:18:43.256Z,51.00
2018-12-04T21:21:15.762Z,50.90
2018-12-04T21:23:47.018Z,50.70
2018-12-04T21:29:14.084Z,50.00
2018-12-04T21:31:47.901Z,49.80
2018-12-04T21:34:21.576Z,50.00
2018-12-04T21:37:01.388Z,50.10
2018-12-04T21:39:35.714Z,50.50
2018-12-04T21:42:13.211Z,50.30
2018-12-04T21:44:50.655Z,50.00
2018-12-04T21:47:27.913Z,50.00
2018-12-04T21:53:01.200Z,50.20
2018-12-04T21:55:40.653Z,50.30
2018-12-04T21:58:12.954Z,50.50
2018-12-04T22:06:37.849Z,50.80
2018-12-04T22:09:10.643Z,51.00
2018-12-04T22:11:40.645Z,50.80
2018-12-04T22:14:14.330Z,50.50
2018-12-04T22:16:44.363Z,50.20
2018-12-04T22:19:16.731Z,50.20
2018-12-04T22:21:50.963Z,50.70
2018-12-04T22:24:25.136Z,50.90
2018-12-04T22:26:59.601Z,50.30
2018-12-04T22:29:32.532Z,50.20
2018-12-04T22:32:06.684Z,50.80
2018-12-04T22:34:39.136Z,50.70
2018-12-04T22:40:06.444Z,50.80
2018-12-04T22:42:38.498Z,50.80
2018-12-04T22:48:03.683Z,50.80
2018-12-04T22:50:37.696Z,50.40
2018-12-04T22:53:12.005Z,50.50
2018-12-04T22:55:43.837Z,50.80
2018-12-04T22:58:24.112Z,50.80
2018-12-04T23:00:56.438Z,50.30
2018-12-04T23:03:27.905Z,50.30
2018-12-04T23:05:56.243Z,50.20
2018-12-04T23:11:26.618Z,49.60
2018-12-04T23:13:56.368Z,49.60
2018-12-04T23:19:25.462Z,49.00
2018-12-04T23:21:57.552Z,49.90
2018-12-04T23:24:28.966Z,50.00
2018-12-04T23:27:00.574Z,50.70
2018-12-04T23:29:35.746Z,50.60
2018-12-04T23:32:05.668Z,50.20
2018-12-04T23:34:40.675Z,49.80
2018-12-04T23:39:48.092Z,49.50
2018-12-04T23:42:19.920Z,49.50
2018-12-04T23:44:52.005Z,49.50
2018-12-04T23:47:23.397Z,48.60
2018-12-04T23:49:57.807Z,49.20
2018-12-04T23:52:29.715Z,49.20
2018-12-04T23:55:01.339Z,48.70
2018-12-04T23:57:30.258Z,49.40
